sensor_id;sensor_type;location;lat;lon;timestamp;pressure;altitude;pressure_sealevel;temperature;humidity
43161;BME280;40968;52.342;5.528;2022-10-30T00:00:16;101685.75;;;16.13;71.53
43161;BME280;40968;52.342;5.528;2022-10-30T00:02:45;101683.31;;;16.10;71.30
43161;BME280;40968;52.342;5.528;2022-10-30T00:05:12;101695.13;;;16.09;71.69
43161;BME280;40968;52.342;5.528;2022-10-30T00:07:39;101627.16;;;15.70;71.31
43161;BME280;40968;52.342;5.528;2022-10-30T00:10:08;101682.94;;;16.03;71.43
43161;BME280;40968;52.342;5.528;2022-10-30T00:12:34;101694.88;;;16.01;71.54
43161;BME280;40968;52.342;5.528;2022-10-30T00:15:01;101636.50;;;15.66;71.69
43161;BME280;40968;52.342;5.528;2022-10-30T00:17:28;101691.47;;;15.99;71.53
43161;BME280;40968;52.342;5.528;2022-10-30T00:19:54;101529.03;;;15.04;71.60
43161;BME280;40968;52.342;5.528;2022-10-30T00:22:21;101519.69;;;14.97;71.37
43161;BME280;40968;52.342;5.528;2022-10-30T00:24:47;101682.03;;;15.93;71.64
43161;BME280;40968;52.342;5.528;2022-10-30T00:27:16;101635.91;;;15.62;71.50
43161;BME280;40968;52.342;5.528;2022-10-30T00:29:42;101634.19;;;15.61;71.67
43161;BME280;40968;52.342;5.528;2022-10-30T00:32:09;101651.00;;;15.65;71.81
43161;BME280;40968;52.342;5.528;2022-10-30T00:34:36;101688.78;;;15.87;71.66
43161;BME280;40968;52.342;5.528;2022-10-30T00:37:03;101611.28;;;15.44;71.71
43161;BME280;40968;52.342;5.528;2022-10-30T00:39:29;101619.00;;;15.49;71.50
43161;BME280;40968;52.342;5.528;2022-10-30T00:41:56;101455.16;;;14.50;71.51
43161;BME280;40968;52.342;5.528;2022-10-30T00:44:46;101644.16;;;15.61;71.85
43161;BME280;40968;52.342;5.528;2022-10-30T00:47:18;101681.56;;;15.77;72.06
43161;BME280;40968;52.342;5.528;2022-10-30T00:49:51;101594.16;;;15.22;71.77
43161;BME280;40968;52.342;5.528;2022-10-30T00:52:22;101672.50;;;15.66;71.90
43161;BME280;40968;52.342;5.528;2022-10-30T00:54:51;101588.78;;;15.11;71.99
43161;BME280;40968;52.342;5.528;2022-10-30T00:57:19;101680.47;;;15.68;71.79
43161;BME280;40968;52.342;5.528;2022-10-30T00:59:47;101677.03;;;15.66;72.17
43161;BME280;40968;52.342;5.528;2022-10-30T01:02:15;101673.72;;;15.62;72.07
43161;BME280;40968;52.342;5.528;2022-10-30T01:04:43;101500.00;;;14.51;71.89
43161;BME280;40968;52.342;5.528;2022-10-30T01:07:14;101680.38;;;15.58;72.01
43161;BME280;40968;52.342;5.528;2022-10-30T01:09:41;101599.09;;;15.06;72.30
43161;BME280;40968;52.342;5.528;2022-10-30T01:12:08;101681.50;;;15.55;72.24
43161;BME280;40968;52.342;5.528;2022-10-30T01:14:37;101668.38;;;15.39;72.11
43161;BME280;40968;52.342;5.528;2022-10-30T01:17:19;101608.69;;;14.99;72.27
43161;BME280;40968;52.342;5.528;2022-10-30T01:19:56;101654.91;;;15.28;72.25
43161;BME280;40968;52.342;5.528;2022-10-30T01:22:35;101690.34;;;15.46;72.39
43161;BME280;40968;52.342;5.528;2022-10-30T01:25:16;101695.97;;;15.43;72.22
43161;BME280;40968;52.342;5.528;2022-10-30T01:27:56;101696.25;;;15.40;72.67
43161;BME280;40968;52.342;5.528;2022-10-30T01:30:37;101674.66;;;15.17;72.39
43161;BME280;40968;52.342;5.528;2022-10-30T01:33:19;101645.81;;;15.06;72.65
43161;BME280;40968;52.342;5.528;2022-10-30T01:35:53;101688.63;;;15.34;72.66
43161;BME280;40968;52.342;5.528;2022-10-30T01:38:27;101548.53;;;14.51;72.51
43161;BME280;40968;52.342;5.528;2022-10-30T01:40:55;101692.69;;;15.28;72.71
43161;BME280;40968;52.342;5.528;2022-10-30T01:43:22;101689.25;;;15.26;72.71
43161;BME280;40968;52.342;5.528;2022-10-30T01:46:04;101694.78;;;15.24;73.00
43161;BME280;40968;52.342;5.528;2022-10-30T01:51:41;101672.72;;;14.97;73.04
43161;BME280;40968;52.342;5.528;2022-10-30T01:54:18;101710.75;;;15.16;72.90
43161;BME280;40968;52.342;5.528;2022-10-30T01:56:58;101667.78;;;14.90;73.14
43161;BME280;40968;52.342;5.528;2022-10-30T01:59:31;101680.56;;;14.88;73.23
43161;BME280;40968;52.342;5.528;2022-10-30T02:01:59;101718.34;;;15.11;73.28
43161;BME280;40968;52.342;5.528;2022-10-30T02:04:27;101627.25;;;14.56;73.24
43161;BME280;40968;52.342;5.528;2022-10-30T02:06:55;101706.09;;;15.07;73.34
43161;BME280;40968;52.342;5.528;2022-10-30T02:09:22;101612.19;;;14.54;73.23
43161;BME280;40968;52.342;5.528;2022-10-30T02:11:49;101651.13;;;14.74;73.19
43161;BME280;40968;52.342;5.528;2022-10-30T02:14:20;101670.88;;;14.86;73.30
43161;BME280;40968;52.342;5.528;2022-10-30T02:16:51;101712.84;;;15.01;73.32
43161;BME280;40968;52.342;5.528;2022-10-30T02:19:18;101692.59;;;14.84;73.40
43161;BME280;40968;52.342;5.528;2022-10-30T02:21:46;101716.53;;;15.00;73.57
43161;BME280;40968;52.342;5.528;2022-10-30T02:24:12;101713.94;;;14.99;73.52
43161;BME280;40968;52.342;5.528;2022-10-30T02:26:39;101598.41;;;14.23;73.40
43161;BME280;40968;52.342;5.528;2022-10-30T02:29:05;101625.28;;;14.36;73.31
43161;BME280;40968;52.342;5.528;2022-10-30T02:31:32;101679.41;;;14.68;73.29
43161;BME280;40968;52.342;5.528;2022-10-30T02:33:59;101657.69;;;14.58;73.57
43161;BME280;40968;52.342;5.528;2022-10-30T02:36:25;101668.22;;;14.62;73.60
43161;BME280;40968;52.342;5.528;2022-10-30T02:38:53;101709.50;;;14.86;73.63
43161;BME280;40968;52.342;5.528;2022-10-30T02:41:20;101421.16;;;13.10;73.44
43161;BME280;40968;52.342;5.528;2022-10-30T02:43:46;101690.22;;;14.68;73.56
43161;BME280;40968;52.342;5.528;2022-10-30T02:46:13;101727.66;;;14.84;73.69
43161;BME280;40968;52.342;5.528;2022-10-30T02:48:40;101647.59;;;14.38;73.80
43161;BME280;40968;52.342;5.528;2022-10-30T02:51:06;101602.63;;;14.03;73.69
43161;BME280;40968;52.342;5.528;2022-10-30T02:53:33;101650.53;;;14.35;73.87
43161;BME280;40968;52.342;5.528;2022-10-30T02:56:03;101664.28;;;14.43;73.93
43161;BME280;40968;52.342;5.528;2022-10-30T02:58:30;101732.16;;;14.72;73.99
43161;BME280;40968;52.342;5.528;2022-10-30T03:00:56;101686.47;;;14.47;74.09
43161;BME280;40968;52.342;5.528;2022-10-30T03:03:23;101694.31;;;14.50;73.96
43161;BME280;40968;52.342;5.528;2022-10-30T03:05:50;101729.09;;;14.66;74.25
43161;BME280;40968;52.342;5.528;2022-10-30T03:08:16;101670.84;;;14.27;74.30
43161;BME280;40968;52.342;5.528;2022-10-30T03:10:43;101543.69;;;13.51;74.14
43161;BME280;40968;52.342;5.528;2022-10-30T03:13:11;101680.53;;;14.30;74.27
43161;BME280;40968;52.342;5.528;2022-10-30T03:15:37;101726.72;;;14.61;74.43
43161;BME280;40968;52.342;5.528;2022-10-30T03:18:04;101688.13;;;14.25;74.43
43161;BME280;40968;52.342;5.528;2022-10-30T03:20:30;101647.88;;;14.10;74.39
43161;BME280;40968;52.342;5.528;2022-10-30T03:22:57;101691.63;;;14.38;74.53
43161;BME280;40968;52.342;5.528;2022-10-30T03:25:23;101643.56;;;14.08;74.61
43161;BME280;40968;52.342;5.528;2022-10-30T03:27:51;101717.38;;;14.54;74.47
43161;BME280;40968;52.342;5.528;2022-10-30T03:30:19;101701.06;;;14.44;74.39
43161;BME280;40968;52.342;5.528;2022-10-30T03:32:45;101598.63;;;13.73;74.36
43161;BME280;40968;52.342;5.528;2022-10-30T03:35:12;101673.53;;;14.16;74.66
43161;BME280;40968;52.342;5.528;2022-10-30T03:37:38;101735.88;;;14.47;74.65
43161;BME280;40968;52.342;5.528;2022-10-30T03:40:06;101606.91;;;13.58;74.58
43161;BME280;40968;52.342;5.528;2022-10-30T03:42:33;101741.50;;;14.44;74.57
43161;BME280;40968;52.342;5.528;2022-10-30T03:44:59;101694.09;;;14.17;74.53
43161;BME280;40968;52.342;5.528;2022-10-30T03:47:27;101740.63;;;14.43;74.83
43161;BME280;40968;52.342;5.528;2022-10-30T03:49:54;101738.81;;;14.44;74.82
43161;BME280;40968;52.342;5.528;2022-10-30T03:52:20;101746.16;;;14.42;74.77
43161;BME280;40968;52.342;5.528;2022-10-30T03:54:47;101686.69;;;14.08;74.50
43161;BME280;40968;52.342;5.528;2022-10-30T03:57:14;101656.22;;;13.83;74.55
43161;BME280;40968;52.342;5.528;2022-10-30T03:59:40;101747.59;;;14.35;74.62
43161;BME280;40968;52.342;5.528;2022-10-30T04:02:07;101754.94;;;14.33;74.71
43161;BME280;40968;52.342;5.528;2022-10-30T04:04:35;101751.50;;;14.31;74.73
43161;BME280;40968;52.342;5.528;2022-10-30T04:07:01;101751.50;;;14.31;74.88
43161;BME280;40968;52.342;5.528;2022-10-30T04:09:28;101646.13;;;13.74;74.57
43161;BME280;40968;52.342;5.528;2022-10-30T04:11:54;101696.44;;;13.98;74.32
43161;BME280;40968;52.342;5.528;2022-10-30T04:14:21;101745.09;;;14.20;74.11
43161;BME280;40968;52.342;5.528;2022-10-30T04:16:47;101741.00;;;14.15;74.38
43161;BME280;40968;52.342;5.528;2022-10-30T04:19:14;101673.56;;;13.68;74.39
43161;BME280;40968;52.342;5.528;2022-10-30T04:21:42;101657.31;;;13.56;74.42
43161;BME280;40968;52.342;5.528;2022-10-30T04:24:12;101656.34;;;13.57;74.70
43161;BME280;40968;52.342;5.528;2022-10-30T04:26:40;101585.88;;;13.02;75.28
43161;BME280;40968;52.342;5.528;2022-10-30T04:29:07;101736.34;;;13.92;75.59
43161;BME280;40968;52.342;5.528;2022-10-30T04:31:33;101737.47;;;13.90;75.84
43161;BME280;40968;52.342;5.528;2022-10-30T04:34:00;101727.03;;;13.85;76.04
43161;BME280;40968;52.342;5.528;2022-10-30T04:36:27;101603.81;;;13.02;76.16
43161;BME280;40968;52.342;5.528;2022-10-30T04:38:58;101740.34;;;13.75;76.64
43161;BME280;40968;52.342;5.528;2022-10-30T04:41:25;101578.59;;;12.79;76.52
43161;BME280;40968;52.342;5.528;2022-10-30T04:43:52;101600.31;;;12.88;76.46
43161;BME280;40968;52.342;5.528;2022-10-30T04:46:18;101590.63;;;12.73;76.64
43161;BME280;40968;52.342;5.528;2022-10-30T04:48:45;101677.41;;;13.39;76.47
43161;BME280;40968;52.342;5.528;2022-10-30T04:51:12;101680.63;;;13.32;77.00
43161;BME280;40968;52.342;5.528;2022-10-30T04:53:38;101734.97;;;13.63;77.08
43161;BME280;40968;52.342;5.528;2022-10-30T04:56:06;101726.13;;;13.60;77.28
43161;BME280;40968;52.342;5.528;2022-10-30T04:58:33;101731.75;;;13.57;77.35
43161;BME280;40968;52.342;5.528;2022-10-30T05:01:00;101642.25;;;13.04;77.43
43161;BME280;40968;52.342;5.528;2022-10-30T05:03:27;101685.25;;;13.30;77.39
43161;BME280;40968;52.342;5.528;2022-10-30T05:05:56;101728.53;;;13.52;77.33
43161;BME280;40968;52.342;5.528;2022-10-30T05:08:23;101703.25;;;13.29;77.31
43161;BME280;40968;52.342;5.528;2022-10-30T05:10:50;101708.75;;;13.27;77.37
43161;BME280;40968;52.342;5.528;2022-10-30T05:13:18;101710.34;;;13.30;77.47
43161;BME280;40968;52.342;5.528;2022-10-30T05:15:44;101660.97;;;12.92;77.18
43161;BME280;40968;52.342;5.528;2022-10-30T05:18:11;101740.81;;;13.56;77.26
43161;BME280;40968;52.342;5.528;2022-10-30T05:20:37;101746.19;;;13.56;77.22
43161;BME280;40968;52.342;5.528;2022-10-30T05:23:04;101546.59;;;12.37;77.18
43161;BME280;40968;52.342;5.528;2022-10-30T05:25:31;101746.19;;;13.56;77.12
43161;BME280;40968;52.342;5.528;2022-10-30T05:27:58;101737.25;;;13.56;76.93
43161;BME280;40968;52.342;5.528;2022-10-30T05:30:27;101744.56;;;13.54;76.97
43161;BME280;40968;52.342;5.528;2022-10-30T05:32:58;101647.34;;;12.96;77.01
43161;BME280;40968;52.342;5.528;2022-10-30T05:35:25;101738.53;;;13.50;77.05
43161;BME280;40968;52.342;5.528;2022-10-30T05:37:51;101740.41;;;13.50;77.07
43161;BME280;40968;52.342;5.528;2022-10-30T05:40:18;101742.19;;;13.49;77.27
43161;BME280;40968;52.342;5.528;2022-10-30T05:42:45;101614.41;;;12.79;77.04
43161;BME280;40968;52.342;5.528;2022-10-30T05:45:11;101697.44;;;13.22;77.16
43161;BME280;40968;52.342;5.528;2022-10-30T05:47:40;101727.72;;;13.39;77.31
43161;BME280;40968;52.342;5.528;2022-10-30T05:50:08;101587.22;;;12.45;77.55
43161;BME280;40968;52.342;5.528;2022-10-30T05:52:35;101645.50;;;12.83;77.96
43161;BME280;40968;52.342;5.528;2022-10-30T05:55:02;101689.72;;;13.05;78.16
43161;BME280;40968;52.342;5.528;2022-10-30T05:57:30;101695.31;;;13.02;78.21
43161;BME280;40968;52.342;5.528;2022-10-30T05:59:57;101692.97;;;12.97;78.47
43161;BME280;40968;52.342;5.528;2022-10-30T06:02:24;101681.00;;;12.88;78.62
43161;BME280;40968;52.342;5.528;2022-10-30T06:04:52;101682.75;;;12.89;78.64
43161;BME280;40968;52.342;5.528;2022-10-30T06:07:18;101683.38;;;12.93;78.74
43161;BME280;40968;52.342;5.528;2022-10-30T06:09:45;101688.66;;;12.94;78.88
43161;BME280;40968;52.342;5.528;2022-10-30T06:12:11;101722.56;;;13.10;78.97
43161;BME280;40968;52.342;5.528;2022-10-30T06:14:38;101718.25;;;13.07;79.05
43161;BME280;40968;52.342;5.528;2022-10-30T06:17:05;101717.38;;;13.07;78.98
43161;BME280;40968;52.342;5.528;2022-10-30T06:19:31;101624.88;;;12.45;78.94
43161;BME280;40968;52.342;5.528;2022-10-30T06:21:59;101608.84;;;12.31;78.81
43161;BME280;40968;52.342;5.528;2022-10-30T06:24:26;101729.88;;;13.08;78.88
43161;BME280;40968;52.342;5.528;2022-10-30T06:26:52;101689.31;;;12.85;78.87
43161;BME280;40968;52.342;5.528;2022-10-30T06:29:19;101736.09;;;13.08;78.76
43161;BME280;40968;52.342;5.528;2022-10-30T06:31:45;101687.28;;;12.76;78.99
43161;BME280;40968;52.342;5.528;2022-10-30T06:34:12;101726.09;;;12.98;78.85
43161;BME280;40968;52.342;5.528;2022-10-30T06:36:39;101490.84;;;11.61;78.78
43161;BME280;40968;52.342;5.528;2022-10-30T06:39:06;101742.13;;;13.12;78.58
43161;BME280;40968;52.342;5.528;2022-10-30T06:41:33;101727.59;;;13.02;78.74
43161;BME280;40968;52.342;5.528;2022-10-30T06:44:00;101741.91;;;13.15;78.67
43161;BME280;40968;52.342;5.528;2022-10-30T06:46:26;101732.88;;;13.16;78.53
43161;BME280;40968;52.342;5.528;2022-10-30T06:48:53;101686.28;;;12.90;78.66
43161;BME280;40968;52.342;5.528;2022-10-30T06:51:20;101551.72;;;12.01;78.40
43161;BME280;40968;52.342;5.528;2022-10-30T06:53:46;101715.09;;;13.01;78.59
43161;BME280;40968;52.342;5.528;2022-10-30T06:56:14;101743.63;;;13.16;78.70
43161;BME280;40968;52.342;5.528;2022-10-30T06:58:41;101693.69;;;12.86;78.55
43161;BME280;40968;52.342;5.528;2022-10-30T07:01:08;101755.16;;;13.18;78.70
43161;BME280;40968;52.342;5.528;2022-10-30T07:03:34;101762.16;;;13.21;78.60
43161;BME280;40968;52.342;5.528;2022-10-30T07:06:01;101759.34;;;13.22;78.56
43161;BME280;40968;52.342;5.528;2022-10-30T07:08:28;101712.41;;;13.01;78.68
43161;BME280;40968;52.342;5.528;2022-10-30T07:10:55;101627.88;;;12.53;78.46
43161;BME280;40968;52.342;5.528;2022-10-30T07:13:23;101719.22;;;13.06;78.59
43161;BME280;40968;52.342;5.528;2022-10-30T07:15:50;101750.09;;;13.26;78.57
43161;BME280;40968;52.342;5.528;2022-10-30T07:18:19;101690.47;;;12.94;78.52
43161;BME280;40968;52.342;5.528;2022-10-30T07:20:46;101689.63;;;12.93;78.54
43161;BME280;40968;52.342;5.528;2022-10-30T07:23:12;101745.56;;;13.27;78.62
43161;BME280;40968;52.342;5.528;2022-10-30T07:25:39;101749.84;;;13.30;78.58
43161;BME280;40968;52.342;5.528;2022-10-30T07:28:05;101729.97;;;13.19;78.64
43161;BME280;40968;52.342;5.528;2022-10-30T07:30:33;101607.00;;;12.44;78.54
43161;BME280;40968;52.342;5.528;2022-10-30T07:33:01;101675.84;;;12.85;78.67
43161;BME280;40968;52.342;5.528;2022-10-30T07:35:28;101670.56;;;12.84;78.53
43161;BME280;40968;52.342;5.528;2022-10-30T07:37:59;101663.47;;;12.83;78.39
43161;BME280;40968;52.342;5.528;2022-10-30T07:40:26;101753.22;;;13.46;78.46
43161;BME280;40968;52.342;5.528;2022-10-30T07:42:56;101716.06;;;13.25;78.48
43161;BME280;40968;52.342;5.528;2022-10-30T07:45:23;101717.78;;;13.26;78.49
43161;BME280;40968;52.342;5.528;2022-10-30T07:47:51;101694.97;;;13.19;78.41
43161;BME280;40968;52.342;5.528;2022-10-30T07:50:18;101689.38;;;13.22;78.38
43161;BME280;40968;52.342;5.528;2022-10-30T07:52:45;101747.69;;;13.60;78.47
43161;BME280;40968;52.342;5.528;2022-10-30T07:55:12;101694.94;;;13.32;78.48
43161;BME280;40968;52.342;5.528;2022-10-30T07:57:39;101645.25;;;13.12;78.24
43161;BME280;40968;52.342;5.528;2022-10-30T08:00:08;101689.78;;;13.42;78.24
43161;BME280;40968;52.342;5.528;2022-10-30T08:02:36;101652.66;;;13.21;78.42
43161;BME280;40968;52.342;5.528;2022-10-30T08:05:05;101677.16;;;13.42;78.29
43161;BME280;40968;52.342;5.528;2022-10-30T08:07:32;101601.47;;;12.97;78.37
43161;BME280;40968;52.342;5.528;2022-10-30T08:09:59;101734.88;;;13.88;78.79
43161;BME280;40968;52.342;5.528;2022-10-30T08:12:26;101704.16;;;13.67;78.57
43161;BME280;40968;52.342;5.528;2022-10-30T08:14:53;101561.34;;;12.81;78.59
43161;BME280;40968;52.342;5.528;2022-10-30T08:17:20;101611.53;;;13.19;78.32
43161;BME280;40968;52.342;5.528;2022-10-30T08:19:47;101619.91;;;13.27;78.20
43161;BME280;40968;52.342;5.528;2022-10-30T08:22:15;101702.78;;;13.85;78.20
43161;BME280;40968;52.342;5.528;2022-10-30T08:24:42;101667.06;;;13.70;78.04
43161;BME280;40968;52.342;5.528;2022-10-30T08:27:09;101629.63;;;13.54;77.88
43161;BME280;40968;52.342;5.528;2022-10-30T08:29:36;101751.41;;;14.32;77.84
43161;BME280;40968;52.342;5.528;2022-10-30T08:32:02;101702.03;;;14.07;77.81
43161;BME280;40968;52.342;5.528;2022-10-30T08:34:32;101738.53;;;14.36;77.69
43161;BME280;40968;52.342;5.528;2022-10-30T08:36:59;101635.41;;;13.85;77.40
43161;BME280;40968;52.342;5.528;2022-10-30T08:39:27;101741.44;;;14.57;77.52
43161;BME280;40968;52.342;5.528;2022-10-30T08:41:56;101740.88;;;14.65;77.35
43161;BME280;40968;52.342;5.528;2022-10-30T08:44:22;101742.84;;;14.74;77.51
43161;BME280;40968;52.342;5.528;2022-10-30T08:46:49;101748.50;;;14.82;77.30
43161;BME280;40968;52.342;5.528;2022-10-30T08:49:15;101648.44;;;14.27;77.12
43161;BME280;40968;52.342;5.528;2022-10-30T08:51:42;101729.16;;;14.88;77.16
43161;BME280;40968;52.342;5.528;2022-10-30T08:54:10;101759.19;;;15.06;77.06
43161;BME280;40968;52.342;5.528;2022-10-30T08:56:38;101739.69;;;15.14;76.87
43161;BME280;40968;52.342;5.528;2022-10-30T08:59:04;101498.72;;;13.76;76.55
43161;BME280;40968;52.342;5.528;2022-10-30T09:01:31;101650.25;;;14.73;75.90
43161;BME280;40968;52.342;5.528;2022-10-30T09:03:58;101747.34;;;15.32;75.93
43161;BME280;40968;52.342;5.528;2022-10-30T09:06:24;101741.66;;;15.35;75.63
43161;BME280;40968;52.342;5.528;2022-10-30T09:08:51;101678.34;;;14.94;75.29
43161;BME280;40968;52.342;5.528;2022-10-30T09:11:17;101754.81;;;15.39;75.15
43161;BME280;40968;52.342;5.528;2022-10-30T09:13:45;101604.97;;;14.54;75.10
43161;BME280;40968;52.342;5.528;2022-10-30T09:16:12;101748.19;;;15.44;75.18
43161;BME280;40968;52.342;5.528;2022-10-30T09:18:38;101683.25;;;15.00;75.14
43161;BME280;40968;52.342;5.528;2022-10-30T09:21:05;101751.13;;;15.52;75.52
43161;BME280;40968;52.342;5.528;2022-10-30T09:23:32;101745.34;;;15.56;75.29
43161;BME280;40968;52.342;5.528;2022-10-30T09:25:58;101746.56;;;15.64;75.46
43161;BME280;40968;52.342;5.528;2022-10-30T09:28:25;101557.88;;;14.58;75.22
43161;BME280;40968;52.342;5.528;2022-10-30T09:30:53;101697.69;;;15.55;75.26
43161;BME280;40968;52.342;5.528;2022-10-30T09:33:21;101673.25;;;15.46;75.65
43161;BME280;40968;52.342;5.528;2022-10-30T09:35:48;101603.00;;;15.13;75.09
43161;BME280;40968;52.342;5.528;2022-10-30T09:38:15;101713.59;;;15.93;74.71
43161;BME280;40968;52.342;5.528;2022-10-30T09:40:56;101751.38;;;16.15;74.72
43161;BME280;40968;52.342;5.528;2022-10-30T09:43:38;101686.50;;;15.83;74.41
43161;BME280;40968;52.342;5.528;2022-10-30T09:46:25;101747.84;;;16.36;73.85
43161;BME280;40968;52.342;5.528;2022-10-30T09:49:18;101672.41;;;16.00;73.56
43161;BME280;40968;52.342;5.528;2022-10-30T09:52:02;101647.00;;;15.91;73.06
43161;BME280;40968;52.342;5.528;2022-10-30T09:54:39;101731.56;;;16.47;73.12
43161;BME280;40968;52.342;5.528;2022-10-30T09:57:15;101763.53;;;16.74;72.69
43161;BME280;40968;52.342;5.528;2022-10-30T09:59:55;101779.56;;;16.87;72.72
43161;BME280;40968;52.342;5.528;2022-10-30T10:02:32;101537.91;;;15.60;72.46
43161;BME280;40968;52.342;5.528;2022-10-30T10:05:10;101641.38;;;16.37;72.32
43161;BME280;40968;52.342;5.528;2022-10-30T10:07:41;101743.50;;;17.08;71.66
43161;BME280;40968;52.342;5.528;2022-10-30T10:10:16;101761.56;;;17.29;71.80
43161;BME280;40968;52.342;5.528;2022-10-30T10:12:47;101760.75;;;17.38;71.13
43161;BME280;40968;52.342;5.528;2022-10-30T10:15:20;101609.75;;;16.58;71.11
43161;BME280;40968;52.342;5.528;2022-10-30T10:17:52;101744.84;;;17.54;71.34
43161;BME280;40968;52.342;5.528;2022-10-30T10:20:26;101754.03;;;17.73;71.74
43161;BME280;40968;52.342;5.528;2022-10-30T10:22:56;101674.59;;;17.32;71.26
43161;BME280;40968;52.342;5.528;2022-10-30T10:25:26;101730.47;;;17.64;70.44
43161;BME280;40968;52.342;5.528;2022-10-30T10:28:05;101709.47;;;17.66;70.72
43161;BME280;40968;52.342;5.528;2022-10-30T10:30:44;101684.25;;;17.55;70.58
43161;BME280;40968;52.342;5.528;2022-10-30T10:33:34;101755.56;;;18.16;70.06
43161;BME280;40968;52.342;5.528;2022-10-30T10:36:16;101456.91;;;16.53;69.72
43161;BME280;40968;52.342;5.528;2022-10-30T10:38:56;101753.56;;;18.48;69.60
43161;BME280;40968;52.342;5.528;2022-10-30T10:41:35;101713.00;;;18.36;69.13
43161;BME280;40968;52.342;5.528;2022-10-30T10:44:15;101736.94;;;18.70;68.64
43161;BME280;40968;52.342;5.528;2022-10-30T10:46:58;101653.44;;;18.35;67.90
43161;BME280;40968;52.342;5.528;2022-10-30T10:49:42;101723.19;;;18.92;66.86
43161;BME280;40968;52.342;5.528;2022-10-30T10:52:16;101725.75;;;19.03;65.87
43161;BME280;40968;52.342;5.528;2022-10-30T10:54:48;101710.59;;;19.00;65.58
43161;BME280;40968;52.342;5.528;2022-10-30T10:57:16;101756.25;;;19.34;65.12
43161;BME280;40968;52.342;5.528;2022-10-30T10:59:50;101635.34;;;18.73;65.04
43161;BME280;40968;52.342;5.528;2022-10-30T11:02:42;101742.00;;;19.50;64.47
43161;BME280;40968;52.342;5.528;2022-10-30T11:05:23;101729.44;;;19.49;64.85
43161;BME280;40968;52.342;5.528;2022-10-30T11:07:51;101737.44;;;19.69;63.79
43161;BME280;40968;52.342;5.528;2022-10-30T11:10:19;101691.91;;;19.53;63.45
43161;BME280;40968;52.342;5.528;2022-10-30T11:12:48;101740.41;;;19.85;63.38
43161;BME280;40968;52.342;5.528;2022-10-30T11:15:26;101742.91;;;19.97;63.76
43161;BME280;40968;52.342;5.528;2022-10-30T11:17:59;101742.25;;;20.03;63.13
43161;BME280;40968;52.342;5.528;2022-10-30T11:20:36;101746.66;;;20.14;62.70
43161;BME280;40968;52.342;5.528;2022-10-30T11:23:35;101715.44;;;20.08;62.64
43161;BME280;40968;52.342;5.528;2022-10-30T11:26:08;101658.88;;;19.94;62.50
43161;BME280;40968;52.342;5.528;2022-10-30T11:28:52;101692.91;;;20.34;62.83
43161;BME280;40968;52.342;5.528;2022-10-30T11:31:21;101726.97;;;20.64;61.73
43161;BME280;40968;52.342;5.528;2022-10-30T11:33:49;101653.72;;;20.27;61.13
43161;BME280;40968;52.342;5.528;2022-10-30T11:36:17;101724.75;;;20.78;60.20
43161;BME280;40968;52.342;5.528;2022-10-30T11:38:46;101677.97;;;20.64;60.00
43161;BME280;40968;52.342;5.528;2022-10-30T11:41:13;101708.66;;;20.93;59.93
43161;BME280;40968;52.342;5.528;2022-10-30T11:43:40;101520.84;;;19.96;59.14
43161;BME280;40968;52.342;5.528;2022-10-30T11:46:10;101694.44;;;21.07;59.22
43161;BME280;40968;52.342;5.528;2022-10-30T11:48:39;101671.03;;;20.96;58.80
43161;BME280;40968;52.342;5.528;2022-10-30T11:51:10;101687.59;;;21.03;58.89
43161;BME280;40968;52.342;5.528;2022-10-30T11:53:39;101703.00;;;21.20;58.64
43161;BME280;40968;52.342;5.528;2022-10-30T11:56:13;101705.41;;;21.24;58.62
43161;BME280;40968;52.342;5.528;2022-10-30T11:58:43;101598.94;;;20.56;58.30
43161;BME280;40968;52.342;5.528;2022-10-30T12:01:16;101696.16;;;21.16;59.00
43161;BME280;40968;52.342;5.528;2022-10-30T12:03:44;101710.19;;;21.30;58.44
43161;BME280;40968;52.342;5.528;2022-10-30T12:06:16;101668.34;;;21.04;58.70
43161;BME280;40968;52.342;5.528;2022-10-30T12:08:57;101704.75;;;21.30;58.48
43161;BME280;40968;52.342;5.528;2022-10-30T12:11:27;101707.16;;;21.33;58.37
43161;BME280;40968;52.342;5.528;2022-10-30T12:13:56;101654.38;;;21.08;58.68
43161;BME280;40968;52.342;5.528;2022-10-30T12:16:23;101705.63;;;21.39;57.99
43161;BME280;40968;52.342;5.528;2022-10-30T12:18:57;101700.66;;;21.34;58.27
43161;BME280;40968;52.342;5.528;2022-10-30T12:21:26;101433.94;;;19.68;58.58
43161;BME280;40968;52.342;5.528;2022-10-30T12:23:56;101628.75;;;20.84;58.82
43161;BME280;40968;52.342;5.528;2022-10-30T12:26:28;101668.69;;;21.01;58.88
43161;BME280;40968;52.342;5.528;2022-10-30T12:28:58;101686.28;;;21.15;59.07
43161;BME280;40968;52.342;5.528;2022-10-30T12:31:33;101653.09;;;20.85;58.63
43161;BME280;40968;52.342;5.528;2022-10-30T12:34:14;101692.41;;;21.09;58.74
43161;BME280;40968;52.342;5.528;2022-10-30T12:36:49;101691.69;;;21.07;59.00
43161;BME280;40968;52.342;5.528;2022-10-30T12:39:22;101683.16;;;21.02;59.18
43161;BME280;40968;52.342;5.528;2022-10-30T12:41:57;101683.31;;;21.00;59.32
43161;BME280;40968;52.342;5.528;2022-10-30T12:44:28;101686.88;;;21.01;59.06
43161;BME280;40968;52.342;5.528;2022-10-30T12:47:00;101643.84;;;20.70;58.97
43161;BME280;40968;52.342;5.528;2022-10-30T12:49:38;101455.31;;;19.63;59.12
43161;BME280;40968;52.342;5.528;2022-10-30T12:52:11;101651.88;;;20.80;59.39
43161;BME280;40968;52.342;5.528;2022-10-30T12:54:46;101581.66;;;20.39;59.49
43161;BME280;40968;52.342;5.528;2022-10-30T12:57:18;101675.25;;;20.91;60.36
43161;BME280;40968;52.342;5.528;2022-10-30T12:59:56;101363.41;;;18.96;60.39
43161;BME280;40968;52.342;5.528;2022-10-30T13:02:31;101682.38;;;20.83;60.61
43161;BME280;40968;52.342;5.528;2022-10-30T13:05:05;101677.09;;;20.82;60.86